Time;durP1;ratioP1;P1;durP2;ratioP2;P2;SDS_P1;SDS_P2;PMS_P1;PMS_P2;Temp;Humidity;BMP_temperature;BMP_pressure;BME280_temperature;BME280_humidity;BME280_pressure;Samples;Min_cycle;Max_cycle;Signal;HPM_P1;HPM_P2
2023/08/04 00:01:14;;;;;;;2.45;1.45;;;15.70;99.90;;;;;;6376393;28;20069;-82
2023/08/04 00:04:15;;;;;;;5.68;1.58;;;15.60;99.90;;;;;;6375952;28;20505;-81
2023/08/04 00:07:17;;;;;;;4.82;2.08;;;15.50;99.90;;;;;;6375729;28;20043;-82
2023/08/04 00:10:19;;;;;;;1.30;1.20;;;15.40;99.90;;;;;;6380066;27;20059;-81
2023/08/04 00:13:22;;;;;;;9.60;2.08;;;15.40;99.90;;;;;;6380125;27;20062;-82
2023/08/04 00:16:23;;;;;;;2.13;1.42;;;15.40;99.90;;;;;;6380604;27;20437;-80
2023/08/04 00:19:25;;;;;;;1.50;1.40;;;15.50;99.90;;;;;;6380442;27;20417;-81
2023/08/04 00:22:27;;;;;;;5.00;1.80;;;15.40;99.90;;;;;;6381580;27;20466;-80
2023/08/04 00:25:28;;;;;;;3.95;1.20;;;15.50;99.90;;;;;;6379495;27;20251;-82
2023/08/04 00:28:31;;;;;;;2.35;1.17;;;15.60;99.90;;;;;;6377222;27;20035;-83
2023/08/04 00:31:33;;;;;;;6.57;1.92;;;15.60;99.90;;;;;;6379706;27;20043;-83
2023/08/04 00:34:35;;;;;;;5.18;1.85;;;15.70;99.90;;;;;;6381241;27;20047;-81
2023/08/04 00:37:36;;;;;;;4.47;1.42;;;15.70;99.90;;;;;;6380057;27;20074;-82
2023/08/04 00:40:38;;;;;;;1.60;1.50;;;15.70;99.90;;;;;;6380188;27;20043;-81
2023/08/04 00:43:41;;;;;;;3.45;1.10;;;15.70;99.90;;;;;;6381107;27;20043;-82
2023/08/04 00:46:43;;;;;;;4.95;1.58;;;15.80;99.90;;;;;;6380568;27;20152;-81
2023/08/04 00:49:47;;;;;;;2.47;1.38;;;15.80;99.90;;;;;;6379573;27;20047;-81
2023/08/04 00:52:50;;;;;;;2.05;1.15;;;15.90;99.90;;;;;;6378293;27;20126;-81
2023/08/04 00:55:53;;;;;;;2.95;1.55;;;15.90;99.90;;;;;;6380348;27;20042;-82
2023/08/04 00:58:56;;;;;;;8.73;1.48;;;15.90;99.90;;;;;;6380178;27;20049;-82
2023/08/04 01:01:58;;;;;;;3.75;1.58;;;15.90;99.90;;;;;;6380905;27;20043;-81
2023/08/04 01:05:00;;;;;;;3.95;1.70;;;16.00;99.90;;;;;;6381155;27;20043;-82
2023/08/04 01:08:12;;;;;;;3.67;1.60;;;16.00;99.90;;;;;;6379231;27;20104;-81
2023/08/04 01:11:17;;;;;;;4.35;1.23;;;16.00;99.90;;;;;;6372583;27;20047;-82
2023/08/04 01:14:20;;;;;;;5.30;1.48;;;16.00;99.90;;;;;;6353340;28;20572;-82
2023/08/04 01:17:22;;;;;;;2.85;1.27;;;16.00;99.90;;;;;;6353055;28;20048;-78
2023/08/04 01:20:25;;;;;;;2.42;1.40;;;16.00;99.90;;;;;;6352872;28;20046;-82
2023/08/04 01:23:28;;;;;;;4.05;1.48;;;16.00;99.90;;;;;;6353843;28;20054;-82
2023/08/04 01:26:30;;;;;;;1.75;1.42;;;16.00;99.90;;;;;;6355218;28;20058;-82
2023/08/04 01:29:32;;;;;;;3.20;1.20;;;16.10;99.90;;;;;;6354995;28;20039;-82
2023/08/04 01:32:33;;;;;;;4.40;2.60;;;16.10;99.90;;;;;;6354924;28;20423;-80
2023/08/04 01:35:35;;;;;;;4.03;1.15;;;16.10;99.90;;;;;;6355037;28;20044;-78
2023/08/04 01:38:38;;;;;;;3.60;0.88;;;16.20;99.90;;;;;;6354076;28;20048;-79
2023/08/04 01:41:40;;;;;;;2.83;1.40;;;16.20;99.90;;;;;;6353691;28;20498;-79
2023/08/04 01:44:42;;;;;;;2.22;1.73;;;16.30;99.90;;;;;;6359135;27;20035;-79
2023/08/04 01:47:45;;;;;;;3.95;1.35;;;16.30;99.90;;;;;;6377557;27;20047;-79
2023/08/04 01:50:47;;;;;;;7.50;1.40;;;16.30;99.90;;;;;;6377709;27;20046;-77
2023/08/04 01:53:50;;;;;;;3.50;1.33;;;16.40;99.90;;;;;;6378797;27;20038;-79
2023/08/04 01:56:52;;;;;;;4.93;1.45;;;16.40;99.90;;;;;;6380130;27;20050;-79
2023/08/04 01:59:53;;;;;;;4.10;1.25;;;16.40;99.90;;;;;;6378175;27;20047;-79
2023/08/04 02:02:55;;;;;;;4.32;1.30;;;16.40;99.90;;;;;;6378542;27;20042;-79
2023/08/04 02:05:57;;;;;;;4.72;2.40;;;16.40;99.90;;;;;;6379189;27;20414;-81
2023/08/04 02:09:00;;;;;;;7.22;2.40;;;16.30;99.90;;;;;;6377405;27;20047;-82
2023/08/04 02:12:01;;;;;;;7.50;1.40;;;16.30;99.90;;;;;;6377006;27;20050;-82
2023/08/04 02:15:04;;;;;;;2.95;1.25;;;16.20;99.90;;;;;;6377346;27;20425;-80
2023/08/04 02:18:06;;;;;;;6.60;1.90;;;16.30;99.90;;;;;;6377278;27;20062;-81
2023/08/04 02:21:08;;;;;;;2.80;1.52;;;16.20;99.90;;;;;;6374911;27;20054;-81
2023/08/04 02:24:11;;;;;;;6.00;3.08;;;16.20;99.90;;;;;;6375413;27;20043;-82
2023/08/04 02:27:13;;;;;;;3.47;1.83;;;16.20;99.90;;;;;;6374750;27;20039;-82
2023/08/04 02:30:15;;;;;;;6.57;1.70;;;16.10;99.90;;;;;;6369172;27;20047;-82
2023/08/04 02:33:16;;;;;;;7.28;2.05;;;16.10;99.90;;;;;;6373303;27;20039;-83
2023/08/04 02:36:18;;;;;;;6.00;1.70;;;16.10;99.90;;;;;;6375194;27;20054;-82
2023/08/04 02:39:21;;;;;;;6.78;2.20;;;16.10;99.90;;;;;;6374088;27;20047;-82
2023/08/04 02:42:24;;;;;;;5.10;1.67;;;16.10;99.90;;;;;;6374318;27;20039;-82
2023/08/04 02:45:26;;;;;;;3.97;1.50;;;16.10;99.90;;;;;;6374422;27;20078;-82
2023/08/04 02:48:27;;;;;;;2.35;1.30;;;16.10;99.90;;;;;;6373749;27;20394;-82
2023/08/04 02:51:29;;;;;;;3.58;1.95;;;16.00;99.90;;;;;;6374960;27;20043;-83
2023/08/04 02:54:32;;;;;;;5.07;1.80;;;15.90;99.90;;;;;;6374990;27;20382;-83
2023/08/04 02:57:35;;;;;;;1.75;1.65;;;15.90;99.90;;;;;;6373812;27;20426;-81
2023/08/04 03:00:36;;;;;;;6.00;1.88;;;15.90;99.90;;;;;;6374118;27;20047;-82
2023/08/04 03:03:38;;;;;;;2.70;1.77;;;15.90;99.90;;;;;;6374610;27;20049;-82
2023/08/04 03:06:40;;;;;;;4.78;1.50;;;15.90;99.90;;;;;;6374221;27;20046;-83
2023/08/04 03:09:43;;;;;;;3.05;1.60;;;15.90;99.90;;;;;;6374269;27;20051;-83
2023/08/04 03:12:44;;;;;;;2.33;1.88;;;15.90;99.90;;;;;;6374474;27;20047;-82
2023/08/04 03:15:46;;;;;;;4.18;1.77;;;15.90;99.90;;;;;;6373125;27;20413;-79
2023/08/04 03:18:48;;;;;;;8.23;1.98;;;15.90;99.90;;;;;;6372875;27;20486;-79
2023/08/04 03:21:49;;;;;;;8.07;2.00;;;15.80;99.90;;;;;;6373747;27;20047;-79
2023/08/04 03:24:53;;;;;;;6.43;2.00;;;15.80;99.90;;;;;;6375517;27;20517;-80
2023/08/04 03:27:55;;;;;;;5.78;2.13;;;15.80;99.90;;;;;;6375625;27;20047;-79
2023/08/04 03:30:56;;;;;;;3.50;1.88;;;15.70;99.90;;;;;;6375753;27;20058;-80
2023/08/04 03:33:58;;;;;;;4.05;2.05;;;15.70;99.90;;;;;;6376022;27;20054;-83
2023/08/04 03:37:00;;;;;;;3.25;2.15;;;15.70;99.90;;;;;;6376667;27;20363;-82
2023/08/04 03:40:03;;;;;;;2.78;2.30;;;15.70;99.90;;;;;;6376384;27;20082;-80
2023/08/04 03:43:05;;;;;;;12.30;1.95;;;15.70;99.90;;;;;;6374546;27;20043;-82
2023/08/04 03:46:07;;;;;;;10.45;3.67;;;15.70;99.90;;;;;;6374672;28;20570;-82
2023/08/04 03:49:08;;;;;;;6.35;2.15;;;15.70;99.90;;;;;;6373696;28;20055;-82
2023/08/04 03:52:10;;;;;;;7.32;3.53;;;15.80;99.90;;;;;;6372974;28;20046;-82
2023/08/04 03:55:13;;;;;;;3.63;2.10;;;15.70;99.90;;;;;;6373186;28;20039;-83
2023/08/04 03:58:15;;;;;;;3.33;2.38;;;15.70;99.90;;;;;;6374087;28;20053;-81
2023/08/04 04:01:17;;;;;;;4.65;1.77;;;15.80;99.90;;;;;;6373753;28;20051;-80
2023/08/04 04:04:19;;;;;;;5.28;2.83;;;15.80;99.90;;;;;;6375540;28;20047;-81
2023/08/04 04:07:20;;;;;;;4.20;1.27;;;15.70;99.90;;;;;;6375043;28;20051;-82
2023/08/04 04:10:23;;;;;;;2.95;1.67;;;15.60;99.90;;;;;;6375758;28;20086;-80
2023/08/04 04:13:25;;;;;;;3.35;2.45;;;15.60;99.90;;;;;;6374010;28;20039;-81
2023/08/04 04:16:29;;;;;;;4.40;2.13;;;15.50;99.90;;;;;;6375495;28;20055;-80
2023/08/04 04:19:31;;;;;;;5.35;2.58;;;15.50;99.90;;;;;;6364488;28;20054;-81
2023/08/04 04:22:33;;;;;;;6.50;1.92;;;15.60;99.90;;;;;;6375107;28;20050;-81
2023/08/04 04:25:36;;;;;;;2.05;1.88;;;15.50;99.90;;;;;;6374206;28;20051;-82
2023/08/04 04:28:38;;;;;;;2.25;2.03;;;15.60;99.90;;;;;;6374885;28;20354;-79
2023/08/04 04:31:40;;;;;;;3.78;2.25;;;15.60;99.90;;;;;;6374409;28;20517;-79
2023/08/04 04:34:42;;;;;;;3.00;2.35;;;15.50;99.90;;;;;;6375316;28;20065;-80
2023/08/04 04:37:43;;;;;;;7.63;2.30;;;15.50;99.90;;;;;;6374837;28;20077;-79
2023/08/04 04:40:55;;;;;;;3.55;2.08;;;15.50;99.90;;;;;;6375740;28;20490;-79
2023/08/04 04:43:58;;;;;;;5.20;2.22;;;15.50;99.90;;;;;;6374786;28;20043;-78
2023/08/04 04:46:59;;;;;;;5.10;1.73;;;15.60;99.90;;;;;;6374005;28;20047;-78
2023/08/04 04:50:01;;;;;;;8.05;2.25;;;15.60;99.90;;;;;;6374512;28;20054;-79
2023/08/04 04:53:03;;;;;;;4.18;2.40;;;15.70;99.90;;;;;;6374741;28;20494;-78
2023/08/04 04:56:06;;;;;;;6.82;2.55;;;15.70;99.90;;;;;;6377645;27;20505;-78
2023/08/04 04:59:08;;;;;;;7.88;2.03;;;15.80;99.90;;;;;;6380565;27;20039;-78
2023/08/04 05:02:10;;;;;;;2.88;2.05;;;15.80;99.90;;;;;;6381479;27;20047;-79
2023/08/04 05:05:11;;;;;;;3.97;2.13;;;15.80;99.90;;;;;;6380753;27;20046;-79
2023/08/04 05:08:13;;;;;;;2.30;1.98;;;15.80;99.90;;;;;;6379690;27;20051;-78
2023/08/04 05:11:16;;;;;;;3.45;2.22;;;15.80;99.90;;;;;;6376795;27;20125;-81
2023/08/04 05:14:18;;;;;;;5.57;2.33;;;15.90;99.90;;;;;;6377469;27;20040;-81
2023/08/04 05:17:19;;;;;;;6.10;3.25;;;15.90;99.90;;;;;;6380589;27;20058;-79
2023/08/04 05:20:21;;;;;;;3.38;2.50;;;15.90;99.90;;;;;;6384494;27;20047;-77
2023/08/04 05:23:23;;;;;;;6.47;3.00;;;15.90;99.90;;;;;;6381669;27;20043;-82
2023/08/04 05:26:26;;;;;;;5.00;2.30;;;15.90;99.90;;;;;;6380599;27;20043;-79
2023/08/04 05:29:28;;;;;;;7.35;2.40;;;16.00;99.90;;;;;;6379776;27;20054;-79
2023/08/04 05:32:29;;;;;;;2.03;1.70;;;16.00;99.90;;;;;;6379891;27;20043;-79
2023/08/04 05:35:31;;;;;;;3.47;2.22;;;16.00;99.90;;;;;;6380438;27;20054;-80
2023/08/04 05:38:33;;;;;;;3.70;2.63;;;16.10;99.90;;;;;;6379020;27;20134;-80
2023/08/04 05:41:36;;;;;;;5.28;2.15;;;16.10;99.90;;;;;;6378166;27;20047;-80
2023/08/04 05:44:38;;;;;;;3.60;2.75;;;16.10;99.90;;;;;;6377954;27;20051;-81
2023/08/04 05:47:39;;;;;;;3.40;2.22;;;16.10;99.90;;;;;;6377782;27;20173;-80
2023/08/04 05:50:41;;;;;;;6.60;2.40;;;16.20;99.90;;;;;;6376020;27;20055;-80
2023/08/04 05:53:43;;;;;;;4.05;2.20;;;16.30;99.90;;;;;;6375476;27;20498;-79
2023/08/04 05:56:46;;;;;;;3.30;1.73;;;16.40;99.90;;;;;;6375329;27;20046;-80
2023/08/04 05:59:48;;;;;;;5.07;4.55;;;16.50;99.90;;;;;;6374951;27;20039;-81
2023/08/04 06:02:49;;;;;;;4.50;2.58;;;16.50;99.90;;;;;;6377498;27;20043;-84
2023/08/04 06:05:51;;;;;;;5.05;1.58;;;16.60;99.90;;;;;;6376028;27;20233;-81
2023/08/04 06:08:53;;;;;;;4.78;2.33;;;16.70;99.90;;;;;;6376454;27;20054;-81
2023/08/04 06:11:56;;;;;;;4.88;1.92;;;16.80;99.90;;;;;;6376201;27;20054;-81
2023/08/04 06:14:57;;;;;;;4.20;2.83;;;16.90;99.90;;;;;;6372827;27;20050;-81
2023/08/04 06:17:59;;;;;;;2.97;1.70;;;16.90;99.90;;;;;;6375611;27;20059;-80
2023/08/04 06:21:01;;;;;;;7.32;1.80;;;16.80;99.90;;;;;;6376474;27;20050;-80
2023/08/04 06:24:03;;;;;;;1.33;1.23;;;16.70;99.90;;;;;;6375111;27;20081;-79
2023/08/04 06:27:07;;;;;;;4.60;1.58;;;16.60;99.90;;;;;;6323617;27;20075;-80
2023/08/04 06:30:10;;;;;;;2.08;1.85;;;16.60;99.90;;;;;;6370703;27;20076;-80
2023/08/04 06:33:11;;;;;;;4.22;1.98;;;16.60;99.90;;;;;;6374060;27;20043;-79
2023/08/04 06:36:13;;;;;;;3.92;2.08;;;16.50;99.90;;;;;;6365000;27;20482;-80
2023/08/04 06:39:15;;;;;;;4.07;1.77;;;16.50;99.90;;;;;;6368609;27;20051;-80
2023/08/04 06:42:18;;;;;;;6.90;1.90;;;16.50;99.90;;;;;;6376484;27;20058;-81
2023/08/04 06:45:20;;;;;;;9.95;1.80;;;16.60;99.90;;;;;;6376206;27;20196;-80
2023/08/04 06:48:24;;;;;;;4.90;2.65;;;16.70;99.90;;;;;;6376243;27;20075;-80
2023/08/04 06:51:25;;;;;;;3.33;2.17;;;16.80;99.90;;;;;;6376926;27;20054;-81
2023/08/04 06:54:27;;;;;;;3.17;1.73;;;17.00;99.90;;;;;;6376505;27;20047;-80
2023/08/04 06:57:30;;;;;;;3.60;1.45;;;17.10;99.90;;;;;;6375768;27;20044;-78
2023/08/04 07:00:32;;;;;;;2.65;1.55;;;17.30;99.90;;;;;;6376286;27;20043;-81
2023/08/04 07:03:33;;;;;;;3.13;1.70;;;17.40;99.90;;;;;;6376096;27;20047;-80
2023/08/04 07:06:35;;;;;;;4.72;1.45;;;17.50;99.90;;;;;;6375467;27;20517;-78
2023/08/04 07:09:37;;;;;;;1.95;1.52;;;17.60;99.90;;;;;;6374513;27;20043;-76
2023/08/04 07:12:40;;;;;;;2.15;1.30;;;17.70;99.90;;;;;;6372467;27;20359;-78
2023/08/04 07:15:42;;;;;;;3.53;1.40;;;17.90;99.90;;;;;;6370855;27;20047;-77
2023/08/04 07:18:43;;;;;;;1.98;1.30;;;18.10;99.90;;;;;;6370940;27;20043;-78
2023/08/04 07:21:45;;;;;;;6.40;3.38;;;18.30;99.90;;;;;;6371458;27;20054;-78
2023/08/04 07:24:53;;;;;;;3.78;1.65;;;18.50;99.90;;;;;;6371116;27;20054;-76
2023/08/04 07:27:56;;;;;;;4.40;1.63;;;18.80;99.90;;;;;;6370780;27;20039;-79
2023/08/04 07:30:59;;;;;;;3.03;1.10;;;18.80;99.90;;;;;;6371099;27;20039;-78
2023/08/04 07:34:01;;;;;;;4.15;1.85;;;18.90;99.90;;;;;;6371806;27;20481;-78
2023/08/04 07:37:03;;;;;;;2.25;1.27;;;18.80;99.90;;;;;;6370739;27;20043;-77
2023/08/04 07:40:05;;;;;;;3.67;1.20;;;18.80;99.90;;;;;;6370855;27;20051;-78
2023/08/04 07:43:11;;;;;;;1.90;1.15;;;18.90;99.90;;;;;;6371174;28;20409;-77
2023/08/04 07:46:19;;;;;;;2.92;1.42;;;18.90;99.90;;;;;;6371163;28;20047;-78
2023/08/04 07:49:21;;;;;;;2.10;0.93;;;19.00;99.90;;;;;;6370529;28;20047;-78
2023/08/04 07:52:22;;;;;;;3.05;1.75;;;19.10;99.90;;;;;;6370268;28;20050;-78
2023/08/04 07:55:24;;;;;;;8.30;1.63;;;19.20;99.90;;;;;;6370940;28;20043;-78
2023/08/04 07:58:27;;;;;;;3.08;1.05;;;19.30;99.90;;;;;;6364776;28;20055;-77
2023/08/04 08:01:29;;;;;;;6.13;2.28;;;19.40;99.90;;;;;;6365450;28;20043;-77
2023/08/04 08:04:30;;;;;;;1.85;1.38;;;19.50;99.90;;;;;;6370963;28;20513;-79
2023/08/04 08:07:32;;;;;;;9.60;2.47;;;19.70;99.90;;;;;;6370328;28;20070;-76
2023/08/04 08:10:34;;;;;;;1.80;1.67;;;20.00;99.90;;;;;;6370864;28;20138;-77
2023/08/04 08:13:37;;;;;;;2.05;1.88;;;20.40;99.90;;;;;;6371304;28;20059;-77
2023/08/04 08:16:39;;;;;;;2.60;1.13;;;20.80;99.90;;;;;;6368540;28;20398;-80
2023/08/04 08:19:41;;;;;;;2.42;1.10;;;20.90;99.90;;;;;;6371012;28;20054;-78
2023/08/04 08:22:42;;;;;;;2.40;0.80;;;20.80;99.90;;;;;;6371354;28;20051;-76
2023/08/04 08:25:44;;;;;;;2.65;1.75;;;20.80;99.90;;;;;;6370708;28;20406;-79
2023/08/04 08:28:47;;;;;;;4.53;2.20;;;20.70;99.90;;;;;;6371055;28;20039;-79
2023/08/04 08:31:49;;;;;;;1.80;1.20;;;20.60;99.90;;;;;;6374714;27;20766;-78
2023/08/04 08:34:50;;;;;;;1.05;0.80;;;20.70;99.90;;;;;;6375628;27;20422;-76
2023/08/04 08:37:52;;;;;;;3.03;1.08;;;20.80;99.90;;;;;;6374957;27;20051;-78
2023/08/04 08:40:54;;;;;;;2.03;1.52;;;21.00;99.90;;;;;;6374447;27;20065;-79
2023/08/04 08:43:57;;;;;;;1.77;1.00;;;21.30;99.90;;;;;;6375161;27;20042;-77
2023/08/04 08:46:59;;;;;;;2.15;1.60;;;21.50;99.90;;;;;;6376827;27;20062;-78
2023/08/04 08:50:02;;;;;;;3.55;1.30;;;21.70;99.90;;;;;;6376725;27;20370;-81
2023/08/04 08:53:09;;;;;;;1.80;1.08;;;21.90;99.90;;;;;;6377119;27;20043;-78
2023/08/04 08:56:11;;;;;;;2.55;0.90;;;22.10;99.90;;;;;;6376367;27;20043;-78
2023/08/04 08:59:15;;;;;;;3.50;1.13;;;22.30;99.90;;;;;;6368508;27;20171;-78
2023/08/04 09:02:17;;;;;;;3.10;2.05;;;22.30;99.90;;;;;;6375586;27;20513;-77
2023/08/04 09:05:18;;;;;;;2.88;1.15;;;22.20;99.90;;;;;;6374917;27;20039;-77
2023/08/04 09:08:20;;;;;;;1.80;0.80;;;22.30;99.90;;;;;;6375222;27;20050;-79
2023/08/04 09:11:22;;;;;;;3.05;0.90;;;22.40;99.90;;;;;;6375558;27;20050;-78
2023/08/04 09:14:25;;;;;;;2.70;1.05;;;22.50;99.90;;;;;;6376467;27;20051;-79
2023/08/04 09:17:31;;;;;;;1.83;1.55;;;22.90;99.90;;;;;;6373905;27;20047;-80
2023/08/04 09:20:33;;;;;;;2.15;0.82;;;23.70;99.90;;;;;;6378296;27;20050;-80
2023/08/04 09:23:36;;;;;;;3.40;1.60;;;24.10;99.90;;;;;;6377068;27;20051;-78
2023/08/04 09:26:42;;;;;;;2.70;0.90;;;24.30;99.90;;;;;;6374252;27;20047;-79
2023/08/04 09:29:57;;;;;;;1.65;1.35;;;24.40;99.90;;;;;;6374001;27;20035;-80
2023/08/04 09:32:59;;;;;;;2.78;0.82;;;24.50;99.90;;;;;;6374596;27;20066;-77
2023/08/04 09:36:06;;;;;;;1.42;0.80;;;24.90;99.90;;;;;;6374476;27;20046;-79
2023/08/04 09:39:09;;;;;;;;;;;25.60;99.90;;;;;;6377674;27;20066;-79
2023/08/04 09:42:11;;;;;;;4.35;0.60;;;26.20;99.90;;;;;;6380279;27;19919;-80
2023/08/04 09:45:15;;;;;;;1.73;0.60;;;26.70;99.90;;;;;;6377399;27;20062;-77
2023/08/04 09:48:16;;;;;;;2.65;0.68;;;26.70;99.90;;;;;;6377391;27;20054;-79
2023/08/04 09:51:19;;;;;;;0.80;0.43;;;26.60;99.90;;;;;;6379824;27;20053;-78
2023/08/04 09:54:21;;;;;;;0.40;0.40;;;26.30;99.30;;;;;;6381723;27;20058;-79
2023/08/04 09:57:24;;;;;;;0.85;0.50;;;26.10;98.80;;;;;;6379528;27;20425;-76
2023/08/04 10:00:27;;;;;;;0.70;0.60;;;25.90;98.10;;;;;;6373478;27;20450;-78
2023/08/04 10:03:29;;;;;;;1.05;0.30;;;25.50;97.70;;;;;;6373288;27;20532;-79
2023/08/04 10:06:33;;;;;;;1.58;0.50;;;25.20;97.80;;;;;;6378830;27;20047;-77
2023/08/04 10:09:35;;;;;;;2.13;1.00;;;24.90;97.50;;;;;;6374674;27;20054;-80
2023/08/04 10:12:38;;;;;;;4.70;2.10;;;24.60;97.70;;;;;;6372075;27;20054;-79
2023/08/04 10:15:41;;;;;;;2.50;2.20;;;24.30;98.00;;;;;;6374888;27;20148;-77
2023/08/04 10:18:48;;;;;;;2.97;2.67;;;23.70;98.50;;;;;;6372782;27;20047;-77
2023/08/04 10:21:51;;;;;;;3.20;2.78;;;23.00;99.30;;;;;;6372760;27;20050;-77
2023/08/04 10:24:53;;;;;;;3.92;2.83;;;22.50;99.90;;;;;;6372472;27;20047;-76
2023/08/04 10:27:54;;;;;;;3.50;2.88;;;22.10;99.90;;;;;;6371358;27;20050;-77
2023/08/04 10:31:05;;;;;;;3.95;3.55;;;21.80;99.90;;;;;;6372307;27;20054;-78
2023/08/04 10:34:16;;;;;;;4.43;3.08;;;21.50;99.90;;;;;;6378718;27;20043;-78
2023/08/04 10:37:19;;;;;;;3.50;3.20;;;21.30;99.90;;;;;;6379266;27;20051;-78
2023/08/04 10:40:30;;;;;;;3.25;2.92;;;21.30;99.90;;;;;;6379537;27;20399;-79
2023/08/04 10:43:32;;;;;;;4.00;3.28;;;21.40;99.90;;;;;;6380075;27;20039;-78
2023/08/04 10:46:35;;;;;;;3.08;2.78;;;21.60;99.90;;;;;;6380065;27;20410;-78
2023/08/04 10:49:37;;;;;;;6.72;2.78;;;21.80;99.90;;;;;;6379417;27;20043;-76
2023/08/04 10:52:42;;;;;;;2.88;2.38;;;21.90;99.90;;;;;;6380845;27;20046;-80
2023/08/04 10:55:56;;;;;;;2.88;2.45;;;22.10;99.90;;;;;;6379926;27;20042;-78
2023/08/04 10:58:58;;;;;;;3.03;2.30;;;22.40;99.90;;;;;;6379541;27;20054;-79
2023/08/04 11:02:01;;;;;;;6.45;2.58;;;22.60;99.90;;;;;;6379102;27;20043;-78
2023/08/04 11:05:05;;;;;;;2.75;2.55;;;23.10;99.90;;;;;;6378975;27;20039;-81
2023/08/04 11:08:07;;;;;;;2.20;2.00;;;23.30;99.90;;;;;;6379538;27;20047;-80
2023/08/04 11:11:09;;;;;;;3.53;2.30;;;24.00;99.90;;;;;;6377851;27;20070;-77
2023/08/04 11:14:11;;;;;;;2.63;2.03;;;24.70;99.90;;;;;;6377326;27;20049;-77
2023/08/04 11:17:15;;;;;;;3.22;2.30;;;25.50;99.90;;;;;;6377584;27;20047;-77
2023/08/04 11:20:16;;;;;;;2.75;1.85;;;25.90;99.90;;;;;;6377287;27;20039;-78
2023/08/04 11:23:25;;;;;;;2.67;1.95;;;26.20;99.90;;;;;;6378876;27;20043;-79
2023/08/04 11:26:28;;;;;;;4.38;2.58;;;26.40;99.60;;;;;;6378320;27;20055;-77
2023/08/04 11:29:30;;;;;;;2.25;2.00;;;26.30;99.00;;;;;;6375352;27;20130;-79
2023/08/04 11:32:33;;;;;;;3.67;2.53;;;26.30;98.50;;;;;;6376599;27;20429;-77
2023/08/04 11:35:35;;;;;;;3.38;2.65;;;26.10;98.00;;;;;;6377483;27;20070;-78
2023/08/04 11:38:37;;;;;;;2.53;2.33;;;25.90;97.50;;;;;;6376686;27;20050;-77
2023/08/04 11:41:39;;;;;;;4.03;2.42;;;25.60;97.40;;;;;;6372883;27;20066;-78
2023/08/04 11:44:42;;;;;;;3.40;2.53;;;25.20;97.70;;;;;;6369577;27;20047;-78
2023/08/04 11:47:46;;;;;;;2.70;2.40;;;25.10;97.90;;;;;;6378001;28;20053;-77
2023/08/04 11:50:48;;;;;;;3.42;2.60;;;25.00;97.60;;;;;;6379117;28;20133;-76
2023/08/04 11:53:50;;;;;;;3.13;2.83;;;24.80;98.20;;;;;;6379005;28;20043;-78
2023/08/04 11:56:55;;;;;;;2.53;2.30;;;24.70;98.00;;;;;;6378386;28;20048;-78
2023/08/04 11:59:57;;;;;;;3.33;3.03;;;24.50;97.90;;;;;;6371971;27;20053;-78
2023/08/04 12:03:02;;;;;;;3.63;2.60;;;24.20;98.00;;;;;;6380835;28;20047;-78
2023/08/04 12:06:03;;;;;;;3.83;2.83;;;24.20;98.30;;;;;;6381955;27;20489;-77
2023/08/04 12:09:06;;;;;;;3.88;2.78;;;24.20;98.10;;;;;;6378159;27;20047;-78
2023/08/04 12:12:08;;;;;;;3.60;2.45;;;24.00;98.10;;;;;;6376194;27;20418;-79
2023/08/04 12:15:10;;;;;;;2.53;2.33;;;24.00;98.20;;;;;;6378330;27;20522;-77
2023/08/04 12:18:25;;;;;;;2.33;2.03;;;23.90;98.20;;;;;;6367036;27;20482;-78
2023/08/04 12:21:26;;;;;;;2.30;2.08;;;23.70;98.00;;;;;;6369380;27;20047;-77
2023/08/04 12:24:29;;;;;;;2.60;2.40;;;23.60;98.20;;;;;;6378039;27;20150;-77
2023/08/04 12:27:31;;;;;;;3.20;2.67;;;23.50;98.30;;;;;;6379280;27;20039;-77
2023/08/04 12:30:32;;;;;;;3.80;2.65;;;23.30;98.60;;;;;;6383956;27;20051;-78
2023/08/04 12:33:35;;;;;;;3.97;2.95;;;23.20;98.60;;;;;;6384467;27;20051;-78
2023/08/04 12:36:37;;;;;;;3.17;2.72;;;23.10;98.60;;;;;;6377307;27;20047;-78
2023/08/04 12:39:39;;;;;;;4.38;2.42;;;22.90;98.60;;;;;;6380298;27;20441;-78
2023/08/04 12:42:41;;;;;;;3.22;2.65;;;22.80;99.00;;;;;;6377063;27;20051;-77
2023/08/04 12:45:42;;;;;;;3.70;2.50;;;22.70;99.10;;;;;;6383815;27;20035;-77
2023/08/04 12:48:45;;;;;;;3.33;2.72;;;22.70;99.20;;;;;;6387897;27;20053;-78
2023/08/04 12:51:47;;;;;;;4.25;3.55;;;22.60;99.30;;;;;;6386168;27;20039;-78
2023/08/04 12:54:49;;;;;;;7.70;4.75;;;22.50;99.30;;;;;;6379026;27;20047;-78
2023/08/04 12:57:50;;;;;;;3.90;3.50;;;22.30;99.60;;;;;;6376361;27;20461;-78
2023/08/04 13:00:52;;;;;;;5.03;4.03;;;22.20;99.90;;;;;;6384672;27;20035;-78
2023/08/04 13:03:55;;;;;;;6.80;3.47;;;22.00;99.90;;;;;;6381855;27;20053;-78
2023/08/04 13:06:57;;;;;;;4.60;3.97;;;22.00;99.90;;;;;;6381145;27;20097;-78
2023/08/04 13:09:59;;;;;;;4.60;4.20;;;22.10;99.90;;;;;;6377074;27;20043;-77
2023/08/04 13:13:01;;;;;;;4.68;4.28;;;22.10;99.90;;;;;;6374407;27;20058;-80
2023/08/04 13:16:03;;;;;;;4.35;3.95;;;22.20;99.90;;;;;;6373814;27;20054;-79
2023/08/04 13:19:06;;;;;;;5.90;5.30;;;22.40;99.90;;;;;;6378501;27;20054;-80
2023/08/04 13:22:07;;;;;;;4.60;4.15;;;22.50;99.90;;;;;;6376977;27;20054;-79
2023/08/04 13:25:09;;;;;;;3.95;3.65;;;22.60;99.90;;;;;;6375523;27;20043;-78
2023/08/04 13:28:11;;;;;;;4.43;3.85;;;22.70;99.90;;;;;;6372280;27;20043;-77
2023/08/04 13:31:12;;;;;;;6.57;4.72;;;22.80;99.90;;;;;;6375285;27;20524;-78
2023/08/04 13:34:15;;;;;;;6.15;5.53;;;22.80;99.90;;;;;;6376141;27;20050;-80
2023/08/04 13:37:17;;;;;;;7.90;4.63;;;22.90;99.90;;;;;;6375954;27;20039;-79
2023/08/04 13:40:19;;;;;;;6.18;5.13;;;22.90;99.90;;;;;;6375838;27;20050;-79
2023/08/04 13:43:21;;;;;;;5.38;4.68;;;22.90;99.90;;;;;;6376344;27;20046;-79
2023/08/04 13:46:23;;;;;;;5.60;5.10;;;23.00;99.90;;;;;;6377483;27;20047;-78
2023/08/04 13:49:26;;;;;;;4.82;4.32;;;23.10;99.90;;;;;;6374854;27;20047;-77
2023/08/04 13:52:29;;;;;;;5.28;4.57;;;23.20;99.80;;;;;;6375561;27;20043;-79
2023/08/04 13:55:30;;;;;;;5.53;4.85;;;23.20;99.80;;;;;;6375104;27;20050;-79
2023/08/04 13:58:32;;;;;;;7.45;5.10;;;23.30;99.80;;;;;;6374916;27;20575;-77
2023/08/04 14:01:34;;;;;;;5.68;5.22;;;23.40;99.60;;;;;;6373101;27;20501;-78
2023/08/04 14:04:37;;;;;;;4.55;4.15;;;23.60;99.40;;;;;;6374298;27;20047;-79
2023/08/04 14:07:41;;;;;;;4.53;4.10;;;23.80;98.90;;;;;;6374984;27;20452;-80
2023/08/04 14:10:44;;;;;;;6.65;5.55;;;24.00;98.40;;;;;;6376577;27;20481;-80
2023/08/04 14:13:46;;;;;;;6.28;4.70;;;24.10;97.90;;;;;;6376442;27;20058;-80
2023/08/04 14:16:47;;;;;;;4.22;3.90;;;24.40;97.80;;;;;;6376804;27;20047;-79
2023/08/04 14:19:50;;;;;;;5.35;4.13;;;24.60;97.50;;;;;;6375538;27;20050;-83
2023/08/04 14:22:52;;;;;;;6.20;4.18;;;24.90;97.10;;;;;;6376452;27;20051;-82
2023/08/04 14:25:54;;;;;;;6.40;4.05;;;25.10;96.70;;;;;;6375555;27;20122;-78
2023/08/04 14:28:55;;;;;;;4.15;3.28;;;25.30;96.30;;;;;;6374324;27;20047;-78
2023/08/04 14:31:57;;;;;;;5.32;3.90;;;25.40;95.70;;;;;;6375558;27;20501;-79
2023/08/04 14:35:00;;;;;;;7.97;3.67;;;25.40;95.50;;;;;;6375917;27;20047;-81
2023/08/04 14:38:03;;;;;;;3.88;3.45;;;25.30;95.00;;;;;;6375161;27;20490;-79
2023/08/04 14:41:04;;;;;;;6.90;5.03;;;25.30;94.90;;;;;;6375757;27;20051;-80
2023/08/04 14:44:06;;;;;;;4.35;3.95;;;25.20;94.80;;;;;;6378102;27;20050;-78
2023/08/04 14:47:08;;;;;;;5.68;4.47;;;25.00;94.70;;;;;;6378043;27;20042;-80
2023/08/04 14:50:11;;;;;;;5.60;4.53;;;24.90;94.70;;;;;;6370249;27;20043;-80
2023/08/04 14:53:13;;;;;;;5.10;4.03;;;24.60;94.50;;;;;;6375294;27;20039;-80
2023/08/04 14:56:14;;;;;;;5.25;4.43;;;24.30;94.60;;;;;;6377450;27;20043;-84
2023/08/04 14:59:16;;;;;;;5.38;4.82;;;24.10;94.90;;;;;;6377245;27;20054;-83
2023/08/04 15:02:18;;;;;;;7.50;5.13;;;23.80;95.40;;;;;;6377953;27;20058;-83
2023/08/04 15:05:21;;;;;;;7.43;5.20;;;23.60;96.00;;;;;;6377291;27;20047;-84
2023/08/04 15:08:22;;;;;;;6.03;5.43;;;23.30;96.70;;;;;;6376522;27;20043;-84
2023/08/04 15:11:24;;;;;;;6.85;5.10;;;23.20;97.20;;;;;;6376296;27;20058;-79
2023/08/04 15:14:27;;;;;;;27.50;10.35;;;23.00;97.40;;;;;;6376905;27;20051;-82
2023/08/04 15:17:29;;;;;;;6.22;3.95;;;22.70;97.90;;;;;;6375508;27;20047;-80
2023/08/04 15:20:32;;;;;;;7.22;5.93;;;22.50;98.40;;;;;;6372197;27;20050;-81
2023/08/04 15:23:34;;;;;;;6.22;5.45;;;22.20;98.70;;;;;;6377340;27;20043;-81
2023/08/04 15:26:36;;;;;;;8.93;5.90;;;22.00;99.20;;;;;;6376347;27;20046;-79
2023/08/04 15:29:37;;;;;;;7.38;5.78;;;21.70;99.70;;;;;;6364428;27;20047;-81
2023/08/04 15:32:39;;;;;;;6.75;5.25;;;21.50;99.90;;;;;;6374224;27;20035;-80
2023/08/04 15:35:42;;;;;;;10.38;5.25;;;21.30;99.90;;;;;;6374627;27;20035;-82
2023/08/04 15:38:46;;;;;;;6.25;5.45;;;21.20;99.90;;;;;;6372838;27;20077;-82
2023/08/04 15:41:47;;;;;;;10.10;6.60;;;21.00;99.90;;;;;;6376053;27;20054;-81
2023/08/04 15:44:49;;;;;;;14.02;8.05;;;20.90;99.90;;;;;;6376690;27;20506;-80
2023/08/04 15:47:51;;;;;;;8.90;6.78;;;20.70;99.90;;;;;;6376485;27;20043;-79
2023/08/04 15:50:59;;;;;;;30.95;20.30;;;20.50;99.90;;;;;;6374873;28;20043;-80